Portada
METAR-TAF:

METAR-TAF

Aeropuertos :

Aeropuerto de Oslo-Gardermoen

Oslo, Noruega

latitud: 60-12N, longitud: 011-05E, altitud: 208 m

Observación

El informe se hizo hace 46 minutos, a las 05:20 UTC
Viento 4 kt del norte, variando entre norte-noroeste y norte-noreste
Temperatura 7°C
Humedad 81%
Presión 1018 hPa
Visibilidad 10 km o más
sin nubes por debajo de 1500 m y sin presencia de cumulonimbus.

METAR: ENGM 210520Z 36004KT 330V030 CAVOK 07/04 Q1018 NOSIG

Hora: 08:06 (06:06 UTC)

Pronóstico

Pronóstico válido del 21 a las 00 UTC al 21 a las 24 UTC
Viento 5 kt del norte
Visibilidad 10 km o más
sin nubes por debajo de 1500 m y sin presencia de cumulonimbus.
Evolucionando progresivamente
del 21 a las 13 UTC al 21 a las 15 UTC
Viento 10 kt del sur

TAF: ENGM 2100/2124 35005KT CAVOK BECMG 2113/2115 19010KT

Observaciones y pronósticos meteorológicos de más de 4000 aeropuertos (mensajes METAR y TAF).

Los puntos amarillos y rojos representan las estaciones disponibles.

Ponga el ratón en el punto deseado para ver el nombre de la estación.

Haga clic para ver las observaciones y los pronósticos meteorológicos.

Para cambiar el mapa : haga clic en los botones verdes con una cruz de color negro para hacer un zoom, en el botón verde con un guión para alejar o en las flechas verdes para mapas adyacentes.


METAR-TAF: